Time;durP1;ratioP1;P1;durP2;ratioP2;P2;SDS_P1;SDS_P2;PMS_P1;PMS_P2;Temp;Humidity;BMP_temperature;BMP_pressure;BME280_temperature;BME280_humidity;BME280_pressure;Samples;Min_cycle;Max_cycle;Signal;HPM_P1;HPM_P2
2023/04/12 00:01:11;;;;;;;16.55;9.93;;;3.40;99.90;;;;;;5061599;28;20025;-59
2023/04/12 00:03:38;;;;;;;7.28;4.93;;;3.40;99.90;;;;;;5059314;28;20035;-56
2023/04/12 00:06:06;;;;;;;6.18;5.03;;;3.40;99.90;;;;;;5058935;28;20036;-56
2023/04/12 00:08:32;;;;;;;6.63;4.03;;;3.40;99.90;;;;;;5063016;28;20060;-56
2023/04/12 00:10:59;;;;;;;5.00;3.50;;;3.40;99.90;;;;;;5058562;28;20029;-56
2023/04/12 00:13:25;;;;;;;4.15;2.53;;;3.40;99.90;;;;;;5058806;28;20035;-55
2023/04/12 00:15:50;;;;;;;6.63;3.08;;;3.40;99.90;;;;;;5060487;28;20012;-54
2023/04/12 00:18:16;;;;;;;5.50;3.50;;;3.40;99.90;;;;;;5057951;28;20495;-56
2023/04/12 00:20:42;;;;;;;6.93;3.58;;;3.40;99.90;;;;;;5060148;28;20078;-56
2023/04/12 00:23:12;;;;;;;6.47;2.97;;;3.30;99.90;;;;;;5061209;28;20025;-55
2023/04/12 00:25:38;;;;;;;6.40;2.88;;;3.30;99.90;;;;;;5059529;28;20139;-55
2023/04/12 00:28:04;;;;;;;9.05;3.58;;;3.30;99.90;;;;;;5056380;28;20036;-56
2023/04/12 00:30:31;;;;;;;9.15;4.55;;;3.30;99.90;;;;;;5058980;28;20024;-57
2023/04/12 00:32:58;;;;;;;8.43;5.10;;;3.30;99.90;;;;;;5058826;28;20028;-56
2023/04/12 00:35:23;;;;;;;6.63;3.95;;;3.30;99.90;;;;;;5059203;28;20104;-55
2023/04/12 00:37:49;;;;;;;13.63;7.15;;;3.30;99.90;;;;;;5061169;28;20111;-55
2023/04/12 00:40:15;;;;;;;10.93;5.80;;;3.30;99.90;;;;;;5060472;28;20028;-55
2023/04/12 00:42:41;;;;;;;7.05;3.78;;;3.40;99.90;;;;;;5061247;28;20047;-56
2023/04/12 00:45:07;;;;;;;9.25;3.08;;;3.30;99.90;;;;;;5054443;28;20127;-57
2023/04/12 00:47:36;;;;;;;5.55;3.35;;;3.40;99.90;;;;;;5057769;28;20040;-56
2023/04/12 00:50:04;;;;;;;10.45;4.00;;;3.40;99.90;;;;;;5056735;28;20040;-57
2023/04/12 00:52:33;;;;;;;6.85;3.20;;;3.40;99.90;;;;;;5060583;28;20021;-57
2023/04/12 00:55:02;;;;;;;7.47;2.67;;;3.50;99.90;;;;;;5059598;28;20024;-56
2023/04/12 00:57:33;;;;;;;5.75;2.70;;;3.50;99.90;;;;;;5056516;28;20043;-56
2023/04/12 00:59:58;;;;;;;3.75;2.80;;;3.50;99.90;;;;;;5060527;28;20035;-57
2023/04/12 01:02:25;;;;;;;8.35;2.88;;;3.50;99.90;;;;;;5060560;28;20908;-55
2023/04/12 01:04:52;;;;;;;5.30;3.10;;;3.50;99.90;;;;;;5061042;28;20029;-57
2023/04/12 01:07:23;;;;;;;7.55;4.75;;;3.50;99.90;;;;;;5064873;28;20036;-56
2023/04/12 01:10:13;;;;;;;9.90;4.03;;;3.40;99.90;;;;;;5061594;28;20044;-57
2023/04/12 01:12:51;;;;;;;9.73;3.70;;;3.40;99.90;;;;;;5061489;28;20027;-56
2023/04/12 01:15:17;;;;;;;11.98;7.05;;;3.40;99.90;;;;;;5061128;28;20841;-57
2023/04/12 01:17:56;;;;;;;17.58;12.05;;;3.30;99.90;;;;;;5063995;28;20056;-57
2023/04/12 01:20:27;;;;;;;22.13;13.18;;;3.40;99.90;;;;;;5063562;28;20037;-57
2023/04/12 01:23:08;;;;;;;8.70;6.03;;;3.30;99.90;;;;;;5063731;28;20027;-57
2023/04/12 01:25:51;;;;;;;5.53;3.80;;;3.30;99.90;;;;;;5060398;28;20114;-55
2023/04/12 01:28:28;;;;;;;24.02;11.65;;;3.30;99.90;;;;;;5062736;28;20021;-55
2023/04/12 01:30:55;;;;;;;17.00;10.27;;;3.30;99.90;;;;;;5065142;28;20025;-56
2023/04/12 01:33:22;;;;;;;14.43;7.88;;;3.40;99.90;;;;;;5064614;28;20029;-56
2023/04/12 01:35:50;;;;;;;19.98;6.85;;;3.40;99.90;;;;;;5064541;28;20433;-55
2023/04/12 01:38:16;;;;;;;7.68;5.50;;;3.40;99.90;;;;;;5057997;28;20057;-55
2023/04/12 01:40:42;;;;;;;11.65;6.78;;;3.40;99.90;;;;;;5060943;28;20091;-57
2023/04/12 01:43:12;;;;;;;8.35;4.70;;;3.40;99.90;;;;;;5064544;28;20512;-56
2023/04/12 01:45:38;;;;;;;7.03;3.70;;;3.40;99.90;;;;;;5062074;28;20024;-56
2023/04/12 01:48:09;;;;;;;5.90;3.60;;;3.50;99.90;;;;;;5062788;28;20029;-56
2023/04/12 01:51:05;;;;;;;3.47;2.58;;;3.40;99.90;;;;;;5062615;28;20052;-56
2023/04/12 01:53:36;;;;;;;3.00;2.38;;;3.40;99.90;;;;;;5065566;28;20051;-57
2023/04/12 01:56:07;;;;;;;6.05;2.80;;;3.40;99.90;;;;;;5058624;28;20025;-54
2023/04/12 01:58:33;;;;;;;;;;;3.50;99.90;;;;;;5061451;28;20174;-55
2023/04/12 02:01:01;;;;;;;4.85;2.53;;;3.50;99.90;;;;;;5064317;28;19962;-57
2023/04/12 02:03:31;;;;;;;4.78;2.42;;;3.50;99.90;;;;;;5059769;28;20112;-57
2023/04/12 02:05:58;;;;;;;3.63;2.60;;;3.50;99.90;;;;;;5060025;28;20512;-56
2023/04/12 02:08:24;;;;;;;6.35;3.22;;;3.50;99.90;;;;;;5063844;28;20086;-55
2023/04/12 02:10:50;;;;;;;5.88;2.20;;;3.50;99.90;;;;;;5066476;28;20020;-56
2023/04/12 02:13:17;;;;;;;4.35;2.20;;;3.50;99.90;;;;;;5061256;28;20048;-56
2023/04/12 02:15:43;;;;;;;4.85;2.42;;;3.50;99.90;;;;;;5063625;28;20108;-56
2023/04/12 02:18:10;;;;;;;3.63;2.58;;;3.60;99.90;;;;;;5063091;28;20039;-54
2023/04/12 02:20:36;;;;;;;7.30;3.42;;;3.60;99.90;;;;;;5064597;28;20037;-57
2023/04/12 02:23:02;;;;;;;4.97;3.15;;;3.60;99.90;;;;;;5060465;28;20037;-57
2023/04/12 02:25:27;;;;;;;3.63;2.83;;;3.60;99.90;;;;;;5076069;28;20496;-57
2023/04/12 02:27:53;;;;;;;4.40;2.17;;;3.60;99.90;;;;;;5062405;28;20039;-56
2023/04/12 02:30:19;;;;;;;5.40;2.53;;;3.60;99.90;;;;;;5060130;28;20045;-57
2023/04/12 02:32:45;;;;;;;6.05;2.72;;;3.60;99.90;;;;;;5062585;28;20029;-56
2023/04/12 02:35:16;;;;;;;4.35;2.42;;;3.60;99.90;;;;;;5059988;28;20501;-57
2023/04/12 02:37:43;;;;;;;6.85;3.80;;;3.60;99.90;;;;;;5061452;28;20079;-56
2023/04/12 02:40:10;;;;;;;7.43;3.25;;;3.70;99.90;;;;;;5062053;28;20636;-56
2023/04/12 02:42:36;;;;;;;7.28;2.88;;;3.70;99.90;;;;;;5062263;28;20025;-56
2023/04/12 02:45:02;;;;;;;4.57;2.95;;;3.70;99.90;;;;;;5060233;28;20039;-57
2023/04/12 02:47:29;;;;;;;6.20;5.10;;;3.70;99.90;;;;;;5061287;28;20040;-58
2023/04/12 02:49:55;;;;;;;8.13;5.13;;;3.80;99.90;;;;;;5061661;28;20389;-56
2023/04/12 02:52:21;;;;;;;8.18;3.75;;;3.80;99.90;;;;;;5062238;28;20025;-57
2023/04/12 02:54:51;;;;;;;5.93;3.10;;;3.80;99.90;;;;;;5060274;28;20510;-57
2023/04/12 02:57:17;;;;;;;3.30;2.20;;;3.80;99.90;;;;;;5061670;28;20559;-55
2023/04/12 02:59:43;;;;;;;8.25;2.88;;;3.80;99.90;;;;;;5057875;28;20175;-57
2023/04/12 03:02:08;;;;;;;4.60;2.60;;;3.90;99.90;;;;;;5060526;28;20389;-57
2023/04/12 03:04:38;;;;;;;4.97;2.70;;;3.90;99.90;;;;;;5063625;28;20025;-56
2023/04/12 03:07:04;;;;;;;3.22;2.30;;;3.90;99.90;;;;;;5071161;28;20021;-57
2023/04/12 03:09:31;;;;;;;3.53;2.15;;;3.90;99.90;;;;;;5057895;28;20029;-57
2023/04/12 03:11:57;;;;;;;4.25;2.22;;;3.90;99.90;;;;;;5062515;28;20028;-55
2023/04/12 03:14:22;;;;;;;4.05;2.33;;;3.90;99.90;;;;;;5057803;28;20817;-56
2023/04/12 03:16:50;;;;;;;3.88;2.65;;;3.90;99.90;;;;;;5061773;28;20036;-57
2023/04/12 03:19:16;;;;;;;4.55;2.22;;;3.80;99.90;;;;;;5059458;28;20028;-55
2023/04/12 03:21:42;;;;;;;4.68;1.98;;;3.80;99.90;;;;;;5060956;28;20040;-56
2023/04/12 03:24:07;;;;;;;4.88;2.38;;;3.80;99.90;;;;;;5059760;28;20451;-56
2023/04/12 03:26:34;;;;;;;9.05;3.50;;;3.80;99.90;;;;;;5057800;28;20463;-57
2023/04/12 03:29:03;;;;;;;5.13;2.20;;;3.80;99.90;;;;;;5058226;28;20045;-55
2023/04/12 03:31:30;;;;;;;8.18;2.83;;;3.90;99.90;;;;;;5064253;28;20107;-57
2023/04/12 03:33:55;;;;;;;3.70;2.40;;;3.90;99.90;;;;;;5060260;28;20036;-56
2023/04/12 03:36:22;;;;;;;4.00;2.55;;;3.90;99.90;;;;;;5060615;28;20025;-56
2023/04/12 03:38:47;;;;;;;5.63;2.42;;;3.90;99.90;;;;;;5058978;28;20017;-56
2023/04/12 03:41:14;;;;;;;4.55;2.75;;;3.90;99.90;;;;;;5060836;28;20402;-55
2023/04/12 03:43:41;;;;;;;5.00;2.40;;;4.00;99.90;;;;;;5060295;28;20036;-57
2023/04/12 03:46:07;;;;;;;3.85;2.40;;;3.90;99.90;;;;;;5059343;28;20024;-56
2023/04/12 03:48:33;;;;;;;5.03;3.00;;;4.00;99.90;;;;;;5065398;28;20043;-57
2023/04/12 03:50:59;;;;;;;6.25;2.35;;;4.10;99.90;;;;;;5060659;28;20064;-56
2023/04/12 03:53:30;;;;;;;7.35;2.58;;;4.10;99.90;;;;;;5060995;28;20029;-56
2023/04/12 03:55:56;;;;;;;5.85;2.88;;;4.10;99.90;;;;;;5057719;28;20445;-56
2023/04/12 03:58:22;;;;;;;4.18;2.33;;;4.10;99.90;;;;;;5057935;28;20055;-57
2023/04/12 04:00:47;;;;;;;5.28;2.53;;;4.10;99.90;;;;;;5057728;28;20029;-57
2023/04/12 04:03:14;;;;;;;6.95;2.90;;;4.10;99.90;;;;;;5062029;28;20528;-57
2023/04/12 04:05:40;;;;;;;4.90;2.22;;;4.20;99.90;;;;;;5061156;28;20515;-55
2023/04/12 04:08:07;;;;;;;7.80;2.20;;;4.10;99.90;;;;;;5060578;28;20040;-56
2023/04/12 04:10:32;;;;;;;4.70;2.50;;;4.20;99.90;;;;;;5061078;28;20037;-56
2023/04/12 04:12:58;;;;;;;4.45;2.72;;;4.20;99.90;;;;;;5060387;28;20024;-55
2023/04/12 04:15:25;;;;;;;8.52;3.17;;;4.20;99.90;;;;;;5059809;28;20025;-55
2023/04/12 04:17:51;;;;;;;4.65;2.30;;;4.20;99.90;;;;;;5060559;28;20496;-55
2023/04/12 04:20:17;;;;;;;6.32;2.70;;;4.20;99.90;;;;;;5060638;28;20037;-56
2023/04/12 04:22:44;;;;;;;3.97;2.95;;;4.20;99.90;;;;;;5060588;28;20044;-58
2023/04/12 04:25:13;;;;;;;4.20;2.70;;;4.20;99.90;;;;;;5060924;28;20044;-57
2023/04/12 04:27:39;;;;;;;5.07;2.53;;;4.20;99.90;;;;;;5059033;28;20025;-56
2023/04/12 04:30:05;;;;;;;7.30;2.88;;;4.20;99.90;;;;;;5062691;28;20420;-59
2023/04/12 04:32:34;;;;;;;10.10;3.35;;;4.20;99.90;;;;;;5058530;28;20028;-59
2023/04/12 04:35:00;;;;;;;6.90;3.20;;;4.30;99.90;;;;;;5056676;28;20036;-59
2023/04/12 04:37:30;;;;;;;3.70;3.05;;;4.30;99.90;;;;;;5061809;28;20025;-56
2023/04/12 04:39:55;;;;;;;4.65;2.65;;;4.30;99.90;;;;;;5058962;28;20107;-57
2023/04/12 04:42:24;;;;;;;10.30;3.30;;;4.30;99.90;;;;;;5058414;28;20024;-57
2023/04/12 04:44:50;;;;;;;5.80;3.42;;;4.30;99.90;;;;;;5059182;28;20095;-57
2023/04/12 04:47:16;;;;;;;4.00;3.40;;;4.30;99.90;;;;;;5058177;28;20021;-55
2023/04/12 04:49:43;;;;;;;4.28;3.40;;;4.30;99.90;;;;;;5063268;28;20139;-57
2023/04/12 04:52:09;;;;;;;4.45;3.28;;;4.30;99.90;;;;;;5060987;28;20031;-55
2023/04/12 04:54:35;;;;;;;5.35;3.38;;;4.40;99.90;;;;;;5061243;28;20036;-57
2023/04/12 04:57:00;;;;;;;5.38;3.10;;;4.40;99.90;;;;;;5058686;28;20498;-57
2023/04/12 04:59:26;;;;;;;4.88;2.88;;;4.40;99.90;;;;;;5056849;28;20044;-57
2023/04/12 05:01:52;;;;;;;3.08;2.78;;;4.40;99.90;;;;;;5059603;28;20463;-56
2023/04/12 05:04:18;;;;;;;7.82;3.33;;;4.50;99.90;;;;;;5059042;28;20021;-56
2023/04/12 05:06:44;;;;;;;4.65;3.83;;;4.40;99.90;;;;;;5058207;28;20073;-57
2023/04/12 05:09:10;;;;;;;5.22;3.80;;;4.50;99.90;;;;;;5057156;28;20068;-56
2023/04/12 05:11:36;;;;;;;5.35;3.00;;;4.50;99.90;;;;;;5055015;28;20059;-57
2023/04/12 05:14:01;;;;;;;3.60;3.10;;;4.50;99.90;;;;;;5057261;28;20029;-56
2023/04/12 05:16:27;;;;;;;5.85;3.13;;;4.50;99.90;;;;;;5058855;28;20744;-57
2023/04/12 05:18:53;;;;;;;3.60;3.13;;;4.50;99.90;;;;;;5057939;28;20032;-56
2023/04/12 05:21:18;;;;;;;8.43;3.58;;;4.50;99.90;;;;;;5059084;28;20033;-59
2023/04/12 05:23:45;;;;;;;8.05;3.55;;;4.50;99.90;;;;;;5054924;28;20504;-58
2023/04/12 05:26:11;;;;;;;7.35;3.67;;;4.60;99.90;;;;;;5061303;28;20032;-58
2023/04/12 05:28:37;;;;;;;6.03;3.78;;;4.60;99.90;;;;;;5059502;28;20119;-59
2023/04/12 05:31:04;;;;;;;6.50;3.55;;;4.60;99.90;;;;;;5055131;28;20146;-59
2023/04/12 05:33:30;;;;;;;7.57;3.47;;;4.60;99.90;;;;;;5061040;28;20075;-59
2023/04/12 05:35:56;;;;;;;4.57;3.00;;;4.60;99.90;;;;;;5059607;28;20070;-58
2023/04/12 05:38:22;;;;;;;5.30;3.53;;;4.70;99.90;;;;;;5058610;28;20103;-56
2023/04/12 05:40:51;;;;;;;6.93;3.75;;;4.70;99.90;;;;;;5060091;28;20048;-55
2023/04/12 05:43:17;;;;;;;6.10;4.20;;;4.80;99.90;;;;;;5059110;28;20078;-55
2023/04/12 05:45:42;;;;;;;5.53;3.45;;;4.80;99.90;;;;;;5054670;28;20041;-59
2023/04/12 05:48:08;;;;;;;7.68;3.63;;;4.90;99.90;;;;;;5058057;28;20033;-59
2023/04/12 05:50:34;;;;;;;5.95;3.63;;;5.00;99.90;;;;;;5056824;28;20048;-58
2023/04/12 05:53:00;;;;;;;4.05;3.45;;;5.00;99.90;;;;;;5059694;28;20469;-59
2023/04/12 05:55:27;;;;;;;5.13;3.08;;;5.10;99.90;;;;;;5058168;28;20051;-57
2023/04/12 05:57:53;;;;;;;3.08;2.60;;;5.10;99.90;;;;;;5059737;28;20094;-57
2023/04/12 06:00:20;;;;;;;6.28;3.53;;;5.20;99.90;;;;;;5056542;28;20036;-55
2023/04/12 06:02:47;;;;;;;8.25;3.10;;;5.30;99.90;;;;;;5057805;28;20090;-56
2023/04/12 06:05:15;;;;;;;4.18;3.20;;;5.30;99.90;;;;;;5062570;28;20033;-56
2023/04/12 06:07:45;;;;;;;7.28;3.88;;;5.30;99.90;;;;;;5057897;28;20043;-55
2023/04/12 06:10:12;;;;;;;7.82;3.03;;;5.40;99.90;;;;;;5058070;28;20475;-57
2023/04/12 06:12:38;;;;;;;5.88;3.05;;;5.40;99.90;;;;;;5044132;28;20037;-56
2023/04/12 06:15:04;;;;;;;8.10;4.40;;;5.50;99.90;;;;;;5057797;28;20098;-56
2023/04/12 06:17:30;;;;;;;3.40;2.78;;;5.50;99.90;;;;;;5062761;28;20029;-60
2023/04/12 06:19:55;;;;;;;4.38;3.30;;;5.60;99.90;;;;;;5061777;28;20039;-59
2023/04/12 06:22:21;;;;;;;5.13;2.97;;;5.70;99.90;;;;;;5061113;28;20075;-56
2023/04/12 06:24:46;;;;;;;4.68;3.17;;;5.90;99.90;;;;;;5062521;28;20032;-56
2023/04/12 06:27:12;;;;;;;5.40;3.10;;;6.00;99.90;;;;;;5062523;28;20036;-57
2023/04/12 06:29:38;;;;;;;5.47;3.28;;;6.20;99.90;;;;;;5060721;28;20048;-58
2023/04/12 06:32:03;;;;;;;5.25;3.72;;;6.30;99.90;;;;;;5055780;28;20416;-58
2023/04/12 06:34:29;;;;;;;6.68;3.58;;;6.40;99.90;;;;;;5060803;28;20079;-57
2023/04/12 06:36:56;;;;;;;9.73;3.22;;;6.40;99.90;;;;;;5061235;28;20040;-60
2023/04/12 06:39:21;;;;;;;5.90;3.17;;;6.50;99.90;;;;;;5062116;28;20052;-59
2023/04/12 06:41:49;;;;;;;6.68;3.75;;;6.50;99.90;;;;;;5060251;28;20066;-57
2023/04/12 06:44:15;;;;;;;4.75;3.25;;;6.50;99.90;;;;;;5059718;28;20035;-59
2023/04/12 06:46:41;;;;;;;6.57;3.70;;;6.50;99.90;;;;;;5060790;28;20726;-58
2023/04/12 06:49:07;;;;;;;5.10;3.65;;;6.60;99.90;;;;;;5061896;28;20037;-58
2023/04/12 06:51:34;;;;;;;5.30;3.85;;;6.70;99.90;;;;;;5062558;28;20032;-58
2023/04/12 06:54:00;;;;;;;4.97;3.08;;;6.70;99.90;;;;;;5063651;28;20104;-58
2023/04/12 06:56:26;;;;;;;4.78;3.15;;;6.80;99.90;;;;;;5059999;28;20056;-59
2023/04/12 06:58:51;;;;;;;7.15;3.08;;;6.80;99.90;;;;;;5062106;28;20055;-59
2023/04/12 07:01:17;;;;;;;5.18;4.05;;;6.90;99.90;;;;;;5056299;28;20071;-58
2023/04/12 07:03:43;;;;;;;5.80;3.28;;;6.80;99.90;;;;;;5056142;28;20493;-59
2023/04/12 07:06:08;;;;;;;7.32;3.53;;;6.80;99.90;;;;;;5062471;28;20572;-58
2023/04/12 07:08:35;;;;;;;5.10;3.35;;;6.70;99.90;;;;;;5056903;28;20123;-57
2023/04/12 07:11:01;;;;;;;6.38;3.40;;;6.80;99.90;;;;;;5058691;28;20036;-59
2023/04/12 07:13:27;;;;;;;5.00;2.88;;;6.80;99.90;;;;;;5062791;28;20600;-58
2023/04/12 07:15:53;;;;;;;10.13;4.38;;;6.80;99.90;;;;;;5058424;28;20024;-58
2023/04/12 07:18:19;;;;;;;5.18;3.50;;;6.80;99.90;;;;;;5060641;28;20398;-58
2023/04/12 07:20:51;;;;;;;5.13;3.22;;;6.90;99.90;;;;;;5058307;28;20080;-59
2023/04/12 07:23:16;;;;;;;8.13;3.45;;;6.90;99.90;;;;;;5060440;28;20487;-58
2023/04/12 07:25:42;;;;;;;7.50;2.95;;;7.00;99.90;;;;;;5058037;28;20029;-58
2023/04/12 07:28:08;;;;;;;7.35;3.78;;;6.90;99.90;;;;;;5057704;28;20117;-59
2023/04/12 07:30:33;;;;;;;7.75;4.03;;;7.00;99.90;;;;;;5059399;28;20512;-59
2023/04/12 07:33:04;;;;;;;7.05;3.75;;;7.10;99.90;;;;;;5060730;28;20509;-58
2023/04/12 07:35:30;;;;;;;5.27;4.07;;;7.10;99.90;;;;;;5060029;28;20033;-58
2023/04/12 07:37:55;;;;;;;5.43;3.28;;;7.10;99.90;;;;;;5061543;28;20263;-58
2023/04/12 07:40:21;;;;;;;4.68;3.30;;;7.10;99.90;;;;;;5058235;28;20039;-58
2023/04/12 07:42:46;;;;;;;7.68;3.50;;;7.20;99.90;;;;;;5061355;28;20167;-58
2023/04/12 07:45:12;;;;;;;11.05;3.88;;;7.20;99.90;;;;;;5058346;28;20409;-58
2023/04/12 07:47:38;;;;;;;5.78;3.35;;;7.30;99.90;;;;;;5058673;28;20029;-58
2023/04/12 07:50:04;;;;;;;5.32;3.33;;;7.30;99.90;;;;;;5057409;28;20033;-57
2023/04/12 07:52:31;;;;;;;4.65;3.25;;;7.20;99.90;;;;;;5060971;28;20021;-58
2023/04/12 07:54:57;;;;;;;5.70;3.95;;;7.20;99.90;;;;;;5060753;28;20032;-58
2023/04/12 07:57:23;;;;;;;7.10;3.90;;;7.30;99.90;;;;;;5057830;28;20489;-59
2023/04/12 07:59:49;;;;;;;4.63;3.83;;;7.40;99.90;;;;;;5059596;28;20044;-58
2023/04/12 08:02:23;;;;;;;4.97;3.58;;;7.50;99.90;;;;;;5059946;28;20078;-58
2023/04/12 08:04:49;;;;;;;8.20;3.95;;;7.50;99.90;;;;;;5027388;28;20056;-59
2023/04/12 08:07:15;;;;;;;5.13;3.67;;;7.60;99.90;;;;;;5059626;28;20033;-58
2023/04/12 08:09:41;;;;;;;5.25;4.75;;;7.80;99.90;;;;;;5059050;28;20393;-57
2023/04/12 08:12:07;;;;;;;3.83;3.00;;;7.90;99.90;;;;;;5062503;28;20048;-58
2023/04/12 08:14:32;;;;;;;4.95;3.47;;;7.90;99.90;;;;;;5045055;28;20083;-59
2023/04/12 08:16:58;;;;;;;4.60;3.53;;;8.10;99.90;;;;;;5039983;28;20029;-60
2023/04/12 08:19:24;;;;;;;5.88;2.88;;;8.30;99.90;;;;;;5040326;28;20120;-60
2023/04/12 08:21:50;;;;;;;4.68;2.97;;;8.40;99.90;;;;;;5061861;28;20043;-59
2023/04/12 08:24:15;;;;;;;3.85;2.80;;;8.30;99.90;;;;;;5058493;28;20156;-58
2023/04/12 08:26:41;;;;;;;4.32;3.03;;;8.40;99.90;;;;;;5058279;28;20409;-57
2023/04/12 08:29:07;;;;;;;5.00;2.58;;;8.50;99.90;;;;;;5061240;28;20043;-58
2023/04/12 08:31:33;;;;;;;4.32;2.40;;;8.50;99.90;;;;;;5060811;28;20024;-59
2023/04/12 08:33:58;;;;;;;2.67;1.65;;;8.60;99.90;;;;;;5058972;28;20473;-58
2023/04/12 08:36:26;;;;;;;2.88;1.75;;;8.60;99.90;;;;;;5060649;28;20112;-58
2023/04/12 08:38:54;;;;;;;3.10;1.88;;;8.60;99.90;;;;;;5062303;28;20110;-58
2023/04/12 08:41:20;;;;;;;3.63;2.00;;;8.60;99.90;;;;;;5056383;28;20493;-57
2023/04/12 08:43:47;;;;;;;5.13;2.10;;;8.70;99.90;;;;;;5057822;28;20055;-60
2023/04/12 08:46:16;;;;;;;3.97;2.15;;;8.70;99.90;;;;;;5063942;28;20752;-59
2023/04/12 08:48:47;;;;;;;4.78;1.83;;;8.80;99.90;;;;;;5060336;28;20028;-57
2023/04/12 08:51:19;;;;;;;4.18;1.95;;;8.80;99.90;;;;;;5057723;28;20102;-59
2023/04/12 08:53:45;;;;;;;3.67;1.75;;;8.90;99.90;;;;;;5059200;28;20511;-60
2023/04/12 08:56:11;;;;;;;3.25;1.70;;;8.90;99.90;;;;;;5059996;28;20025;-59
2023/04/12 08:58:44;;;;;;;2.53;1.23;;;8.90;99.90;;;;;;5059056;28;20056;-59
2023/04/12 09:01:14;;;;;;;2.75;1.38;;;8.80;99.90;;;;;;5056070;28;20481;-59
2023/04/12 09:03:43;;;;;;;3.53;1.40;;;8.70;99.90;;;;;;5060782;28;20024;-59
2023/04/12 09:06:10;;;;;;;2.42;1.40;;;8.60;99.90;;;;;;5059047;28;20705;-58
2023/04/12 09:08:36;;;;;;;2.10;1.42;;;8.60;99.90;;;;;;5059227;28;20023;-59
2023/04/12 09:11:20;;;;;;;3.58;1.70;;;8.50;99.90;;;;;;5064554;28;20029;-59
2023/04/12 09:13:46;;;;;;;1.90;1.45;;;8.40;99.90;;;;;;5060494;28;20531;-58
2023/04/12 09:16:12;;;;;;;2.25;1.27;;;8.40;99.90;;;;;;5057708;28;20051;-58
2023/04/12 09:18:48;;;;;;;2.13;1.30;;;8.40;99.90;;;;;;5058110;28;20020;-58
2023/04/12 09:21:14;;;;;;;1.30;1.00;;;8.50;99.90;;;;;;5060969;28;20025;-59
2023/04/12 09:23:40;;;;;;;3.00;1.23;;;8.60;99.90;;;;;;5065780;28;20099;-59
2023/04/12 09:26:07;;;;;;;1.50;1.23;;;8.60;99.90;;;;;;5060665;28;20618;-59
2023/04/12 09:28:32;;;;;;;3.33;1.30;;;8.70;99.90;;;;;;5061811;28;20029;-58
2023/04/12 09:30:59;;;;;;;2.17;1.35;;;8.70;99.90;;;;;;5063572;28;20031;-59
2023/04/12 09:33:38;;;;;;;4.10;1.60;;;8.70;99.90;;;;;;5060766;28;20037;-57
2023/04/12 09:36:05;;;;;;;1.92;1.20;;;8.70;99.90;;;;;;5062590;28;20021;-59
2023/04/12 09:38:32;;;;;;;2.03;1.40;;;8.70;99.90;;;;;;5063752;28;20035;-59
2023/04/12 09:41:18;;;;;;;2.80;1.83;;;8.70;99.90;;;;;;5060995;28;20039;-58
2023/04/12 09:43:44;;;;;;;1.73;1.30;;;8.70;99.90;;;;;;5057420;28;20029;-59
2023/04/12 09:46:12;;;;;;;4.05;1.30;;;8.70;99.90;;;;;;5060621;28;20028;-57
2023/04/12 09:48:47;;;;;;;1.92;1.20;;;8.80;99.90;;;;;;5059212;28;20041;-59
2023/04/12 09:51:13;;;;;;;3.00;1.20;;;9.00;99.90;;;;;;5062763;28;20033;-59
2023/04/12 09:53:45;;;;;;;2.53;1.50;;;9.10;99.90;;;;;;5059151;28;20397;-59
2023/04/12 09:56:12;;;;;;;1.35;1.25;;;9.10;99.90;;;;;;5062239;28;20025;-59
2023/04/12 09:58:39;;;;;;;1.60;1.00;;;9.20;99.90;;;;;;5062829;28;20503;-59
2023/04/12 10:01:08;;;;;;;3.13;1.38;;;9.20;99.90;;;;;;5061216;28;20025;-60
2023/04/12 10:03:34;;;;;;;2.67;1.10;;;9.10;99.90;;;;;;5064266;28;20021;-59
2023/04/12 10:06:02;;;;;;;2.28;1.35;;;9.20;99.90;;;;;;5050547;28;20021;-58
2023/04/12 10:08:29;;;;;;;3.38;1.30;;;9.20;99.90;;;;;;5061066;28;20043;-58
2023/04/12 10:10:56;;;;;;;1.85;1.13;;;9.20;99.90;;;;;;5060620;28;20797;-60
2023/04/12 10:13:22;;;;;;;1.58;1.20;;;9.20;99.90;;;;;;5061700;28;20095;-58
2023/04/12 10:15:50;;;;;;;1.35;1.20;;;9.30;99.90;;;;;;5059205;28;20037;-59
2023/04/12 10:18:18;;;;;;;1.23;0.98;;;9.30;99.90;;;;;;5062908;28;20097;-58
2023/04/12 10:20:45;;;;;;;3.22;1.30;;;9.20;99.90;;;;;;5059779;28;20036;-58
2023/04/12 10:23:11;;;;;;;2.55;1.15;;;9.30;99.90;;;;;;5061475;28;20526;-59
2023/04/12 10:25:39;;;;;;;1.58;0.90;;;9.40;99.90;;;;;;5061015;28;20103;-58
2023/04/12 10:28:20;;;;;;;2.33;1.20;;;9.40;99.90;;;;;;5059579;28;20119;-58
2023/04/12 10:30:51;;;;;;;1.75;1.20;;;9.50;99.90;;;;;;5056388;28;20045;-59
2023/04/12 10:33:19;;;;;;;2.38;1.05;;;9.50;99.90;;;;;;5060427;28;20029;-58
2023/04/12 10:35:59;;;;;;;1.58;1.25;;;9.60;99.90;;;;;;5058894;28;20039;-58
2023/04/12 10:38:29;;;;;;;4.18;0.98;;;9.60;99.90;;;;;;5060614;28;20116;-58
2023/04/12 10:41:12;;;;;;;2.13;1.00;;;9.60;99.90;;;;;;5062599;28;20037;-58
2023/04/12 10:43:39;;;;;;;1.25;0.90;;;9.60;99.90;;;;;;5058600;28;20044;-59
2023/04/12 10:46:05;;;;;;;0.85;0.85;;;9.50;99.90;;;;;;5063083;28;20020;-59
2023/04/12 10:48:34;;;;;;;1.30;1.00;;;9.30;99.90;;;;;;5058944;28;20115;-59
2023/04/12 10:51:24;;;;;;;1.33;1.10;;;9.10;99.90;;;;;;5058781;28;20021;-58
2023/04/12 10:53:50;;;;;;;0.70;0.70;;;9.00;99.90;;;;;;5065274;28;20044;-58
2023/04/12 10:56:31;;;;;;;1.75;1.08;;;9.00;99.90;;;;;;5058339;28;20048;-59
2023/04/12 10:59:02;;;;;;;0.82;0.82;;;9.10;99.90;;;;;;5058669;28;20040;-59
2023/04/12 11:01:30;;;;;;;1.55;1.08;;;9.00;99.90;;;;;;5058606;28;20035;-59
2023/04/12 11:04:18;;;;;;;1.13;0.93;;;9.10;99.90;;;;;;5062035;28;20021;-59
2023/04/12 11:06:51;;;;;;;1.45;1.00;;;9.30;99.90;;;;;;5060063;28;20097;-58
2023/04/12 11:09:26;;;;;;;1.60;1.23;;;9.40;99.90;;;;;;5064388;28;20037;-58
2023/04/12 11:12:04;;;;;;;1.40;1.30;;;9.70;99.90;;;;;;5061807;28;20518;-58
2023/04/12 11:14:42;;;;;;;1.00;0.90;;;9.70;99.90;;;;;;5062444;28;20040;-60
2023/04/12 11:17:08;;;;;;;1.00;0.90;;;9.80;99.90;;;;;;5062646;28;20036;-58
2023/04/12 11:19:39;;;;;;;1.73;1.02;;;9.70;99.90;;;;;;5059917;28;20386;-59
2023/04/12 11:22:06;;;;;;;2.00;1.83;;;9.70;99.90;;;;;;5062375;28;20028;-59
2023/04/12 11:24:32;;;;;;;2.28;1.67;;;9.60;99.90;;;;;;5063546;28;20025;-60
2023/04/12 11:26:59;;;;;;;1.73;1.35;;;9.70;99.90;;;;;;5062828;28;20404;-59
2023/04/12 11:29:26;;;;;;;1.88;1.60;;;9.70;99.90;;;;;;5060747;28;20049;-59
2023/04/12 11:31:52;;;;;;;3.63;2.08;;;9.70;99.90;;;;;;5061694;28;20025;-58
2023/04/12 11:34:19;;;;;;;3.10;2.03;;;9.80;99.90;;;;;;5066158;28;20077;-59
2023/04/12 11:36:46;;;;;;;2.10;1.80;;;9.80;99.90;;;;;;5060079;28;20532;-60
2023/04/12 11:39:12;;;;;;;2.35;2.10;;;9.70;99.90;;;;;;5058213;28;20140;-59
2023/04/12 11:41:45;;;;;;;1.95;1.55;;;9.70;99.90;;;;;;5057927;28;20084;-58
2023/04/12 11:44:14;;;;;;;2.70;1.83;;;9.80;99.90;;;;;;5059783;28;20032;-59
2023/04/12 11:46:40;;;;;;;2.33;2.10;;;9.80;99.90;;;;;;5060020;28;22361;-60
2023/04/12 11:49:05;;;;;;;4.00;2.50;;;9.70;99.90;;;;;;5060192;28;20111;-59
2023/04/12 11:51:31;;;;;;;2.38;2.17;;;9.70;99.90;;;;;;5059990;28;20550;-60
2023/04/12 11:53:57;;;;;;;4.15;2.20;;;9.50;99.90;;;;;;5060135;28;20033;-58
2023/04/12 11:56:24;;;;;;;3.03;2.25;;;9.40;99.90;;;;;;5061654;28;20028;-59
2023/04/12 11:58:50;;;;;;;3.17;2.88;;;9.30;99.90;;;;;;5058771;28;20032;-60
2023/04/12 12:01:18;;;;;;;2.97;2.30;;;9.20;99.90;;;;;;5061611;28;20029;-59
2023/04/12 12:03:44;;;;;;;3.88;2.50;;;9.10;99.90;;;;;;5062040;28;20036;-60
2023/04/12 12:06:10;;;;;;;1.98;1.75;;;9.10;99.90;;;;;;5061921;28;20146;-59
2023/04/12 12:08:37;;;;;;;1.50;1.40;;;9.10;99.90;;;;;;5057110;28;20031;-59
2023/04/12 12:11:03;;;;;;;2.20;1.60;;;9.10;99.90;;;;;;5059827;28;20032;-58
2023/04/12 12:13:48;;;;;;;2.00;1.88;;;9.10;99.90;;;;;;5057905;28;20033;-59
2023/04/12 12:16:15;;;;;;;2.10;1.90;;;9.10;99.90;;;;;;5060927;28;20024;-57
2023/04/12 12:18:42;;;;;;;5.30;3.90;;;9.30;99.90;;;;;;5061388;28;20020;-59
2023/04/12 12:21:09;;;;;;;1.77;1.67;;;9.40;99.90;;;;;;5056936;28;20037;-58
2023/04/12 12:23:35;;;;;;;2.50;1.88;;;9.50;99.90;;;;;;5062037;28;20018;-59
2023/04/12 12:26:07;;;;;;;1.73;1.63;;;9.70;99.90;;;;;;5060345;28;20033;-59
2023/04/12 12:28:39;;;;;;;2.72;1.75;;;9.80;99.90;;;;;;5060453;28;20024;-59
2023/04/12 12:31:25;;;;;;;2.45;1.90;;;10.00;99.90;;;;;;5062560;28;20021;-60
2023/04/12 12:33:58;;;;;;;1.95;1.55;;;10.10;99.90;;;;;;5057023;28;20029;-60
2023/04/12 12:36:31;;;;;;;2.13;1.73;;;10.10;99.90;;;;;;5060234;28;20629;-59
2023/04/12 12:39:05;;;;;;;1.50;1.40;;;10.10;99.90;;;;;;5057449;28;20508;-59
2023/04/12 12:41:31;;;;;;;2.65;1.88;;;10.20;99.90;;;;;;5058411;28;20490;-59
2023/04/12 12:43:56;;;;;;;1.80;1.40;;;10.10;99.90;;;;;;5061758;28;20098;-59
2023/04/12 12:46:22;;;;;;;2.05;1.25;;;10.00;99.90;;;;;;5059948;28;20104;-60
2023/04/12 12:48:48;;;;;;;2.90;1.40;;;9.90;99.90;;;;;;5056032;28;20074;-58
2023/04/12 12:51:19;;;;;;;1.65;1.30;;;9.90;99.90;;;;;;5059224;28;20797;-59
2023/04/12 12:53:45;;;;;;;1.52;1.42;;;9.90;99.90;;;;;;5063907;28;20147;-57
2023/04/12 12:56:12;;;;;;;2.25;1.60;;;9.80;99.90;;;;;;5058815;28;20029;-58
2023/04/12 12:58:38;;;;;;;3.38;1.73;;;9.80;99.90;;;;;;5060714;28;20048;-58